Hlavní strana
METAR-TAF:

METAR-TAF

Letiště :

Bahrajn, Bahrajn

zeměpisná šířka: 26-16N, zeměpisná délka: 050-39E, výška: 2 m

Aktuální stav počasí

Zpráva byla vytvořena před 27 minutami, v 05:00 UTC
Severoseverozápadní vítr 18 kt
Teplota 36°C
Vlhkost vzduchu 42%
Tlak 1002 hPa
Viditelnost 10 km a více
Žádná oblačnost pod 1500 m, nevyskytují se cumulonimby.

METAR: OBBI 200500Z 33018KT CAVOK 36/21 Q1002 NOSIG

Čas: 08:27 (05:27 UTC)

Předpověď počasí

Zpráva byla vytvořena před 6 hodinami a 27 minutami, v 23:00 UTC
Předpověď platná od 20 v 00 UTC do 21 v 06 UTC
Severoseverozápadní vítr 15 kt
Viditelnost 10 km a více
Žádná oblačnost pod 1500 m, nevyskytují se cumulonimby.
Změna
od 20 v 04 UTC do 20 v 06 UTC
Severoseverozápadní vítr 15 kt s nárazy do 25 kt
Změna
od 20 v 15 UTC do 20 v 17 UTC
Severoseverozápadní vítr 13 kt

TAF: OBBI 192300Z 2000/2106 33015KT CAVOK BECMG 2004/2006 33015G25KT BECMG 2015/2017 33013KT

Stav a předpovědi počasí z více než 4 000 letišť (zprávy METAR a TAF).

Červené a žluté tečky na mapě představují dostupné meteorologické stanice.

Když kurzor umístíte na tečku, zobrazí se název stanice.

Pak kliknutím zobrazíte stav a předpověď počasí.

Chcete-li změnit mapu, kliknutím na zelené tlačítko se znaménkem +mapu přiblížíte, kliknutím na zelené tlačítko se znaménkem – mapu oddálíte a kliknutím na zelené šipky přejdete na sousední mapy.


METAR-TAF: